Archbold, Ohio
Current Conditions -  °F | °C
As of 4:55 AM on Friday 19 Dec 2014 (Local Time) from KUSE Reporting Station
Haze Haze  
Wind Chill: 21°   Ceiling: 2400
Heat Index: 28°   Visibility: 6mi
Dew Point: 27°   Wind: 7mph
Humidity: 93%   Direction: 280°W
Pressure: 30.21"   Gusts: NA
Location:  41.52°N, 84.31°W
Report Text: KUSE 190955Z AUTO 28006KT 6SM BR SCT010 OVC024 M02/M03 A3021 RMK AO2
Loading
Personal Weather Stations






























Interactive Weather Map New forecast layout! Learn more

10-Day Weather Forecast

Advertisements
Track Severe Weather on mobile